Aviation Digital Data Service (ADDS)

Output produced by METARs form (0155 UTC 19 November 2018)
found at http://www.aviationweather.gov/metar/data/
 
EGPD 190150Z AUTO 15004KT 9999 BKN021 08/05 Q1034 NOSIG
EGPD 190120Z AUTO 13005KT 9999 BKN022 OVC028 08/04 Q1034 NOSIG
TAF EGPD 182258Z 1900/1924 14007KT 9999 SCT018 
     TEMPO 1900/1906 6000 BKN012 
     PROB40 
     TEMPO 1900/1904 BKN008 
     BECMG 1915/1918 08012KT 
     PROB30 
     TEMPO 1918/1924 8000 -SHRA BKN014